Time;durP1;ratioP1;P1;durP2;ratioP2;P2;SDS_P1;SDS_P2;PMS_P1;PMS_P2;Temp;Humidity;BMP_temperature;BMP_pressure;BME280_temperature;BME280_humidity;BME280_pressure;Samples;Min_cycle;Max_cycle;Signal;HPM_P1;HPM_P2
2022/08/20 00:01:41;;;;;;;4.97;1.00;;;;;;;21.33;68.84;100348.25;4897067;29;20055;-75
2022/08/20 00:04:27;;;;;;;4.00;1.13;;;;;;;21.56;67.90;100347.78;4927078;29;20066;-75
2022/08/20 00:07:13;;;;;;;5.30;1.30;;;;;;;21.28;69.07;100346.63;4912406;29;20055;-75
2022/08/20 00:09:59;;;;;;;4.75;1.63;;;;;;;21.10;69.17;100340.31;4916085;29;20063;-76
2022/08/20 00:12:47;;;;;;;6.18;1.00;;;;;;;20.99;69.70;100342.28;4919990;29;20047;-76
2022/08/20 00:15:34;;;;;;;2.97;1.65;;;;;;;20.94;70.63;100331.59;4930535;29;20062;-76
2022/08/20 00:18:21;;;;;;;4.10;1.30;;;;;;;21.09;70.30;100344.25;4920547;29;20051;-76
2022/08/20 00:21:10;;;;;;;8.82;1.27;;;;;;;21.06;69.81;100356.09;4905676;29;20047;-78
2022/08/20 00:23:55;;;;;;;8.43;1.63;;;;;;;21.00;69.41;100362.41;4930538;29;20059;-78
2022/08/20 00:26:40;;;;;;;4.72;1.30;;;;;;;20.90;69.84;100364.00;4916378;29;20059;-78
2022/08/20 00:29:25;;;;;;;5.15;1.05;;;;;;;20.98;69.91;100360.03;4905294;29;20055;-77
2022/08/20 00:32:10;;;;;;;6.45;2.03;;;;;;;21.06;69.15;100350.56;4903788;29;20071;-78
2022/08/20 00:34:55;;;;;;;8.13;1.73;;;;;;;21.10;70.16;100354.13;4901784;29;20059;-77
2022/08/20 00:37:40;;;;;;;3.53;1.23;;;;;;;21.19;68.63;100354.53;4905404;29;20536;-78
2022/08/20 00:40:30;;;;;;;10.13;1.50;;;;;;;21.13;68.73;100355.31;4902604;29;20071;-77
2022/08/20 00:43:40;;;;;;;2.00;1.00;;;;;;;21.25;67.62;100360.47;4915255;29;20044;-77
2022/08/20 00:46:27;;;;;;;7.13;1.77;;;;;;;21.17;67.45;100353.38;4916079;29;20055;-77
2022/08/20 00:49:18;;;;;;;7.07;1.73;;;;;;;21.13;68.35;100347.03;4902457;29;20047;-77
2022/08/20 00:52:06;;;;;;;3.22;0.90;;;;;;;21.15;68.85;100348.22;4916002;29;20051;-77
2022/08/20 00:54:54;;;;;;;3.33;1.35;;;;;;;21.08;68.64;100337.13;4915756;29;20259;-77
2022/08/20 00:57:46;;;;;;;7.22;1.35;;;;;;;21.03;69.00;100345.06;4915680;29;20050;-76
2022/08/20 01:00:39;;;;;;;2.92;1.50;;;;;;;20.91;69.85;100341.50;4915428;29;20047;-78
2022/08/20 01:03:25;;;;;;;2.90;1.00;;;;;;;20.99;69.25;100339.50;4915674;29;20413;-78
2022/08/20 01:06:12;;;;;;;3.25;1.05;;;;;;;21.04;68.68;100333.59;4915683;29;20055;-78
2022/08/20 01:09:00;;;;;;;5.53;0.93;;;;;;;21.01;69.28;100336.34;4891254;29;20055;-78
2022/08/20 01:11:45;;;;;;;3.85;1.00;;;;;;;20.84;69.66;100333.19;4902885;29;20051;-78
2022/08/20 01:14:44;;;;;;;4.15;1.00;;;;;;;20.72;70.00;100346.59;4915308;29;20070;-77
2022/08/20 01:17:33;;;;;;;5.00;1.15;;;;;;;20.90;70.85;100348.19;4904207;29;20426;-77
2022/08/20 01:20:23;;;;;;;6.22;1.42;;;;;;;21.02;69.54;100343.47;4929137;29;20059;-77
2022/08/20 01:23:38;;;;;;;5.97;1.55;;;;;;;20.87;69.38;100339.91;4915330;29;20067;-77
2022/08/20 01:26:29;;;;;;;5.03;1.10;;;;;;;20.83;69.83;100330.81;4929754;29;20433;-77
2022/08/20 01:29:21;;;;;;;2.80;1.25;;;;;;;20.70;70.33;100335.16;4931610;29;20055;-77
2022/08/20 01:32:06;;;;;;;5.03;1.30;;;;;;;20.77;70.02;100326.88;4885327;29;20047;-76
2022/08/20 01:34:51;;;;;;;5.88;1.50;;;;;;;20.70;70.71;100329.63;4883397;29;20047;-76
2022/08/20 01:37:36;;;;;;;2.67;0.90;;;;;;;20.80;70.34;100321.34;4902843;29;20059;-76
2022/08/20 01:40:39;;;;;;;3.53;1.10;;;;;;;21.08;68.56;100320.53;4914817;29;20043;-76
2022/08/20 01:43:25;;;;;;;4.07;1.10;;;;;;;20.98;69.06;100321.34;4901295;29;20421;-78
2022/08/20 01:46:12;;;;;;;2.75;1.25;;;;;;;20.92;69.30;100325.69;4905226;29;20413;-77
2022/08/20 01:48:58;;;;;;;6.35;1.30;;;;;;;21.08;69.20;100320.53;4903215;29;20063;-77
2022/08/20 01:51:43;;;;;;;4.40;0.90;;;;;;;20.90;69.71;100315.03;4914608;29;20051;-77
2022/08/20 01:54:28;;;;;;;10.38;1.20;;;;;;;20.90;70.22;100303.19;4905194;29;20055;-77
2022/08/20 01:57:17;;;;;;;1.17;0.85;;;;;;;20.86;69.55;100302.41;4915319;29;20055;-77
2022/08/20 02:00:12;;;;;;;3.85;1.02;;;;;;;21.07;69.26;100309.91;4914504;29;20051;-77
2022/08/20 02:02:57;;;;;;;2.75;1.52;;;;;;;21.27;68.29;100302.78;4899277;29;20052;-77
2022/08/20 02:05:42;;;;;;;4.72;1.10;;;;;;;21.15;67.57;100303.19;4897104;29;20063;-78
2022/08/20 02:08:27;;;;;;;4.93;1.02;;;;;;;21.06;68.59;100311.06;4895084;29;20051;-77
2022/08/20 02:11:12;;;;;;;4.40;1.00;;;;;;;21.14;68.22;100305.16;4893156;29;20051;-77
2022/08/20 02:13:57;;;;;;;7.80;1.40;;;;;;;21.08;68.43;100303.94;4902928;29;20095;-78
2022/08/20 02:16:45;;;;;;;4.05;0.88;;;;;;;21.24;68.87;100306.34;4914617;29;20059;-77
2022/08/20 02:19:39;;;;;;;5.70;0.82;;;;;;;21.34;67.96;100305.53;4903752;29;20051;-77
2022/08/20 02:22:38;;;;;;;4.45;1.00;;;;;;;21.18;68.44;100294.88;4902728;29;20527;-77
2022/08/20 02:25:26;;;;;;;3.40;0.82;;;;;;;20.94;68.87;100301.19;4905617;29;20055;-77
2022/08/20 02:28:18;;;;;;;2.10;0.90;;;;;;;20.96;69.18;100292.50;4914662;29;20059;-77
2022/08/20 02:31:07;;;;;;;3.00;1.10;;;;;;;20.87;69.42;100292.91;4928516;29;20425;-78
2022/08/20 02:33:51;;;;;;;8.02;1.02;;;;;;;20.80;69.60;100287.38;4904957;29;20099;-77
2022/08/20 02:36:37;;;;;;;4.18;1.15;;;;;;;20.72;69.79;100285.81;4915335;29;20047;-77
2022/08/20 02:39:22;;;;;;;2.42;1.00;;;;;;;20.83;69.19;100279.09;4900059;29;20524;-77
2022/08/20 02:42:08;;;;;;;2.50;1.15;;;;;;;20.74;70.24;100284.22;4907904;29;20043;-78
2022/08/20 02:44:53;;;;;;;2.50;0.90;;;;;;;20.75;70.55;100279.50;4911848;29;20547;-77
2022/08/20 02:47:38;;;;;;;3.00;1.00;;;;;;;20.64;71.01;100279.47;4905470;29;20051;-77
2022/08/20 02:50:24;;;;;;;10.30;1.30;;;;;;;20.63;71.50;100288.94;4890842;29;20055;-77
2022/08/20 02:53:09;;;;;;;2.25;0.77;;;;;;;20.67;70.93;100281.44;4906659;29;20417;-76
2022/08/20 02:55:55;;;;;;;2.28;1.08;;;;;;;20.89;69.63;100280.28;4892279;29;20059;-77
2022/08/20 02:58:40;;;;;;;4.82;0.80;;;;;;;20.55;71.49;100279.06;4903477;29;20059;-77
2022/08/20 03:01:26;;;;;;;3.63;1.35;;;;;;;20.44;72.04;100279.06;4907347;29;20047;-77
2022/08/20 03:04:11;;;;;;;3.65;1.08;;;;;;;20.66;71.51;100271.59;4905422;29;20081;-77
2022/08/20 03:06:57;;;;;;;6.32;1.65;;;;;;;20.78;69.62;100282.25;4917638;29;20512;-77
2022/08/20 03:09:42;;;;;;;7.38;1.42;;;;;;;20.59;70.72;100277.09;4932873;29;20429;-77
2022/08/20 03:12:27;;;;;;;3.53;1.40;;;;;;;20.68;71.59;100279.47;4905768;29;20043;-77
2022/08/20 03:15:12;;;;;;;5.13;1.23;;;;;;;20.74;71.19;100283.44;4903597;29;20051;-77
2022/08/20 03:17:57;;;;;;;7.57;1.25;;;;;;;20.64;70.67;100284.22;4907685;29;20516;-77
2022/08/20 03:20:43;;;;;;;4.93;1.48;;;;;;;20.68;70.30;100287.75;4913675;29;20133;-77
2022/08/20 03:23:28;;;;;;;3.97;1.40;;;;;;;20.68;70.56;100287.75;4940838;28;20043;-77
2022/08/20 03:26:15;;;;;;;7.15;1.00;;;;;;;20.78;70.02;100279.47;4913601;29;20524;-77
2022/08/20 03:29:00;;;;;;;4.07;1.20;;;;;;;20.83;69.97;100286.59;4923426;29;20047;-76
2022/08/20 03:31:45;;;;;;;7.68;1.50;;;;;;;20.75;70.22;100276.72;4903509;29;20413;-77
2022/08/20 03:34:30;;;;;;;4.03;1.23;;;;;;;20.58;71.03;100274.72;4921691;29;20051;-77
2022/08/20 03:37:16;;;;;;;3.40;0.90;;;;;;;20.56;70.89;100264.09;4906159;29;20055;-77
2022/08/20 03:40:04;;;;;;;6.72;2.10;;;;;;;20.44;71.49;100265.25;4916260;29;20055;-77
2022/08/20 03:42:51;;;;;;;3.53;1.20;;;;;;;20.53;71.08;100255.78;4917371;29;20051;-77
2022/08/20 03:45:38;;;;;;;1.42;0.63;;;;;;;20.86;69.48;100260.94;4901101;29;20535;-76
2022/08/20 03:48:24;;;;;;;4.57;1.00;;;;;;;21.08;67.71;100261.72;4946774;28;20066;-76
2022/08/20 03:51:09;;;;;;;3.10;0.70;;;;;;;21.19;66.98;100271.56;4919519;29;20524;-77
2022/08/20 03:53:54;;;;;;;3.30;0.80;;;;;;;21.28;66.38;100269.19;4905058;29;20068;-77
2022/08/20 03:56:38;;;;;;;3.35;1.00;;;;;;;21.25;65.87;100263.66;4903412;29;20051;-77
2022/08/20 03:59:24;;;;;;;2.05;1.02;;;;;;;21.11;66.78;100274.72;4906003;29;20055;-77
2022/08/20 04:02:12;;;;;;;2.22;0.65;;;;;;;20.98;67.59;100273.56;4916584;29;20047;-76
2022/08/20 04:04:57;;;;;;;7.03;1.27;;;;;;;21.13;67.25;100275.91;4916629;29;20520;-77
2022/08/20 04:07:43;;;;;;;2.80;0.90;;;;;;;21.35;67.39;100287.75;4907445;29;20058;-77
2022/08/20 04:10:28;;;;;;;6.60;0.75;;;;;;;21.98;66.83;100297.06;4903060;29;20047;-77
2022/08/20 04:13:15;;;;;;;172.65;32.25;;;;;;;22.30;65.42;100288.59;4907604;29;20085;-76
2022/08/20 04:16:02;;;;;;;19.95;3.97;;;;;;;22.57;64.31;100270.19;4927339;29;20044;-76
2022/08/20 04:18:47;;;;;;;7.35;1.33;;;;;;;22.71;63.65;100278.44;4902043;29;20048;-77
2022/08/20 04:21:35;;;;;;;3.45;0.88;;;;;;;22.66;62.45;100272.50;4891296;29;20048;-76
2022/08/20 04:24:20;;;;;;;5.68;0.80;;;;;;;22.47;62.78;100273.84;4901129;29;20440;-76
2022/08/20 04:27:07;;;;;;;4.43;0.93;;;;;;;22.21;63.74;100279.94;4912927;29;20055;-77
2022/08/20 04:29:52;;;;;;;4.32;1.05;;;;;;;22.01;64.57;100299.03;4917812;29;20070;-77
2022/08/20 04:32:37;;;;;;;5.15;0.73;;;;;;;21.85;65.29;100295.91;4912891;23;20055;-61
2022/08/20 04:35:23;;;;;;;7.60;0.85;;;;;;;21.55;66.17;100286.13;4912670;29;20519;-62
2022/08/20 04:38:13;;;;;;;2.20;0.68;;;;;;;21.85;66.46;100288.38;4912392;29;20400;-61
2022/08/20 04:40:59;;;;;;;6.88;1.60;;;;;;;21.88;66.70;100290.38;4906661;29;20052;-62
2022/08/20 04:43:44;;;;;;;2.97;0.70;;;;;;;22.26;66.18;100290.59;4897163;29;20056;-60
2022/08/20 04:46:31;;;;;;;3.28;0.80;;;;;;;22.46;65.24;100286.91;4889556;29;20432;-62
2022/08/20 04:49:16;;;;;;;3.00;0.75;;;;;;;22.41;64.70;100279.00;4899980;29;20052;-60
2022/08/20 04:52:02;;;;;;;3.78;0.90;;;;;;;22.41;64.91;100286.53;4892721;29;20412;-60
2022/08/20 04:54:46;;;;;;;4.60;1.35;;;;;;;22.60;64.91;100288.81;4897025;29;20401;-60
2022/08/20 04:57:32;;;;;;;1.08;0.40;;;;;;;22.63;64.55;100282.44;4897011;29;20052;-62
2022/08/20 05:00:17;;;;;;;2.85;0.98;;;;;;;22.73;64.37;100283.56;4896890;29;20052;-61
2022/08/20 05:03:01;;;;;;;1.55;0.93;;;;;;;22.84;63.98;100287.84;4904311;29;20051;-61
2022/08/20 05:05:46;;;;;;;3.10;1.10;;;;;;;22.87;63.63;100284.25;4884835;29;20048;-60
2022/08/20 05:08:32;;;;;;;2.00;0.70;;;;;;;22.87;63.50;100286.22;4904550;29;20047;-62
2022/08/20 05:11:20;;;;;;;3.45;1.25;;;;;;;22.57;63.34;100293.16;4907317;29;20055;-62
2022/08/20 05:14:09;;;;;;;5.28;1.10;;;;;;;22.50;62.97;100284.88;4912732;29;20048;-62
2022/08/20 05:16:56;;;;;;;5.05;0.98;;;;;;;22.51;63.39;100285.69;4896692;29;20061;-61
2022/08/20 05:19:41;;;;;;;4.20;1.00;;;;;;;22.56;63.37;100290.78;4896535;29;20059;-62
2022/08/20 05:22:27;;;;;;;3.13;0.88;;;;;;;22.61;63.42;100299.47;4900263;29;20039;-62
2022/08/20 05:25:12;;;;;;;2.80;1.10;;;;;;;22.54;63.42;100299.53;4917284;29;20404;-61
2022/08/20 05:28:08;;;;;;;8.27;1.58;;;;;;;22.51;63.07;100296.75;4915221;29;20067;-61
2022/08/20 05:30:53;;;;;;;5.07;1.92;;;;;;;22.59;62.82;100298.31;4895987;29;20060;-61
2022/08/20 05:33:38;;;;;;;4.65;1.10;;;;;;;22.58;63.05;100307.81;4893575;29;20035;-61
2022/08/20 05:36:23;;;;;;;2.83;1.17;;;;;;;22.56;63.85;100312.97;4888056;29;20525;-60
2022/08/20 05:39:09;;;;;;;2.60;0.98;;;;;;;22.64;63.95;100313.72;4890588;29;20066;-60
2022/08/20 05:41:54;;;;;;;5.45;1.63;;;;;;;22.69;63.58;100311.31;4894027;29;20452;-60
2022/08/20 05:44:39;;;;;;;1.30;0.73;;;;;;;22.68;64.15;100315.25;4895440;29;20047;-60
2022/08/20 05:47:27;;;;;;;2.42;1.08;;;;;;;22.82;64.00;100317.97;4899658;29;20050;-61
2022/08/20 05:50:12;;;;;;;3.30;1.40;;;;;;;22.78;63.33;100319.19;4889421;29;20071;-60
2022/08/20 05:52:56;;;;;;;3.80;1.80;;;;;;;22.55;64.15;100319.72;4886136;29;20524;-60
2022/08/20 05:55:43;;;;;;;5.55;1.90;;;;;;;22.45;64.80;100323.34;4894554;29;20055;-62
2022/08/20 05:58:31;;;;;;;3.33;1.08;;;;;;;22.62;65.04;100319.66;4895326;29;20064;-61
2022/08/20 06:01:16;;;;;;;2.05;1.13;;;;;;;22.80;64.48;100317.59;4893965;29;20067;-61
2022/08/20 06:07:06;;;;;;;5.10;1.70;;;;;;;22.91;64.33;100317.47;4893805;29;20047;-60
2022/08/20 06:09:50;;;;;;;7.53;1.63;;;;;;;23.00;63.44;100318.63;4894375;29;20401;-60
2022/08/20 06:12:36;;;;;;;5.28;1.20;;;;;;;23.03;63.69;100325.31;4895402;29;20096;-60
2022/08/20 06:15:21;;;;;;;2.85;0.90;;;;;;;23.08;63.50;100324.09;4895299;29;20059;-60
2022/08/20 06:18:07;;;;;;;4.18;1.20;;;;;;;23.12;63.39;100319.28;4899702;29;20134;-61
2022/08/20 06:20:52;;;;;;;4.60;0.95;;;;;;;23.14;63.26;100314.94;4902720;29;20062;-60
2022/08/20 06:23:37;;;;;;;4.07;0.70;;;;;;;23.19;62.82;100322.00;4899530;29;20048;-61
2022/08/20 06:26:22;;;;;;;6.50;1.27;;;;;;;23.24;62.81;100327.91;4911305;29;20075;-60
2022/08/20 06:29:07;;;;;;;2.60;0.82;;;;;;;23.27;62.76;100332.63;4921375;29;20047;-60
2022/08/20 06:31:52;;;;;;;5.97;1.80;;;;;;;23.32;62.59;100334.97;4918265;29;20055;-60
2022/08/20 06:34:37;;;;;;;5.88;1.23;;;;;;;23.35;62.57;100347.25;4906271;29;20048;-61
2022/08/20 06:37:25;;;;;;;5.20;1.20;;;;;;;23.41;62.07;100340.03;4899371;29;20055;-60
2022/08/20 06:40:13;;;;;;;3.42;1.00;;;;;;;23.38;60.76;100340.84;4896717;29;20059;-60
2022/08/20 06:42:58;;;;;;;3.85;1.88;;;;;;;23.41;61.44;100340.84;4894098;29;20051;-59
2022/08/20 06:45:43;;;;;;;6.07;1.40;;;;;;;23.43;62.25;100345.97;4900108;29;20056;-60
2022/08/20 06:48:28;;;;;;;5.65;1.00;;;;;;;23.48;61.19;100344.75;4900952;29;20051;-59
2022/08/20 06:51:13;;;;;;;3.22;1.20;;;;;;;23.56;61.81;100349.06;4897917;29;20266;-59
2022/08/20 06:53:58;;;;;;;3.65;1.10;;;;;;;23.60;61.49;100347.81;4885080;29;20408;-60
2022/08/20 06:56:43;;;;;;;6.85;1.58;;;;;;;23.74;58.85;100358.75;4885102;29;20056;-60
2022/08/20 06:59:28;;;;;;;5.38;1.45;;;;;;;23.72;60.26;100354.84;4880174;29;20052;-59
2022/08/20 07:02:13;;;;;;;8.07;1.33;;;;;;;23.79;60.06;100361.09;4891638;29;20056;-59
2022/08/20 07:04:58;;;;;;;1.30;0.82;;;;;;;23.90;58.55;100351.84;4898737;29;20051;-60
2022/08/20 07:07:48;;;;;;;2.75;0.98;;;;;;;23.95;59.38;100356.94;4892772;29;20610;-60
2022/08/20 07:10:33;;;;;;;5.40;1.02;;;;;;;23.94;59.14;100355.38;4898239;29;20431;-59
2022/08/20 07:13:17;;;;;;;6.47;1.10;;;;;;;23.86;60.06;100360.22;4896321;29;20060;-60
2022/08/20 07:16:04;;;;;;;3.45;1.70;;;;;;;23.85;59.92;100351.09;4902509;29;20055;-59
2022/08/20 07:18:49;;;;;;;4.20;0.77;;;;;;;24.08;58.30;100344.88;4903410;29;20043;-59
2022/08/20 07:21:34;;;;;;;10.30;1.23;;;;;;;24.07;59.20;100343.31;4898908;29;20048;-59
2022/08/20 07:24:19;;;;;;;6.45;1.40;;;;;;;24.06;59.66;100344.50;4896085;29;20048;-59
2022/08/20 07:27:04;;;;;;;14.20;2.55;;;;;;;24.13;59.83;100360.28;4894550;29;20064;-60
2022/08/20 07:32:54;;;;;;;10.98;1.27;;;;;;;24.26;58.33;100358.56;4884585;29;20071;-60
2022/08/20 07:35:39;;;;;;;5.28;1.30;;;;;;;24.32;58.77;100356.91;4901738;29;20051;-60
2022/08/20 07:38:28;;;;;;;4.80;1.70;;;;;;;24.24;59.06;100358.97;4898904;29;20063;-60
2022/08/20 07:41:13;;;;;;;5.07;1.00;;;;;;;24.34;57.79;100353.69;4888992;29;20052;-60
2022/08/20 07:43:58;;;;;;;6.43;1.30;;;;;;;24.48;57.98;100372.97;4896615;29;20047;-60
2022/08/20 07:46:43;;;;;;;2.67;1.00;;;;;;;24.46;58.18;100370.63;4898227;29;20043;-60
2022/08/20 07:49:28;;;;;;;2.97;0.98;;;;;;;24.50;56.89;100360.22;4896859;29;20059;-60
2022/08/20 07:52:14;;;;;;;5.57;1.35;;;;;;;24.51;56.47;100363.78;4898249;29;20056;-60
2022/08/20 07:54:59;;;;;;;13.05;1.13;;;;;;;24.52;57.57;100366.16;4894993;29;20057;-60
2022/08/20 07:57:46;;;;;;;4.72;1.58;;;;;;;24.44;59.51;100370.22;4897399;29;20505;-60
2022/08/20 08:00:32;;;;;;;18.55;2.90;;;;;;;24.33;59.15;100371.59;4898001;29;20047;-60
2022/08/20 08:03:17;;;;;;;12.43;1.23;;;;;;;24.33;57.35;100368.81;4900619;29;20056;-60
2022/08/20 08:06:02;;;;;;;7.15;1.20;;;;;;;24.27;56.00;100369.28;4897571;29;20051;-60
2022/08/20 08:08:47;;;;;;;10.18;1.30;;;;;;;24.41;55.15;100370.28;4897910;29;20071;-60
2022/08/20 08:11:38;;;;;;;13.38;1.13;;;;;;;24.38;54.66;100366.34;4897788;29;20048;-60
2022/08/20 08:14:28;;;;;;;19.75;1.90;;;;;;;24.47;54.65;100369.41;4917189;29;20047;-59
2022/08/20 08:17:16;;;;;;;15.25;1.27;;;;;;;24.49;54.20;100369.78;4895426;29;20131;-59
2022/08/20 08:20:04;;;;;;;6.85;1.08;;;;;;;24.62;53.94;100370.00;4892039;29;20500;-60
2022/08/20 08:22:50;;;;;;;6.13;0.70;;;;;;;24.59;53.74;100374.41;4898999;29;20059;-60
2022/08/20 08:25:34;;;;;;;6.10;0.93;;;;;;;24.64;53.69;100373.13;4897420;29;20056;-60
2022/08/20 08:28:20;;;;;;;3.17;1.17;;;;;;;24.63;53.13;100379.94;4897437;29;20048;-59
2022/08/20 08:31:05;;;;;;;8.35;1.92;;;;;;;24.65;53.04;100381.06;4894616;29;20060;-60
2022/08/20 08:33:50;;;;;;;6.10;1.67;;;;;;;24.68;53.33;100387.78;4889977;29;20385;-60
2022/08/20 08:36:35;;;;;;;4.07;1.00;;;;;;;24.72;53.48;100385.75;4896593;29;20068;-60
2022/08/20 08:39:41;;;;;;;2.40;0.95;;;;;;;24.80;53.05;100386.41;4895496;29;20047;-60
2022/08/20 08:42:40;;;;;;;3.40;0.55;;;;;;;24.91;52.23;100390.66;4912824;29;20043;-59
2022/08/20 08:45:34;;;;;;;3.20;0.80;;;;;;;24.95;52.84;100385.81;4896002;29;20043;-59
2022/08/20 08:48:20;;;;;;;1.90;0.90;;;;;;;25.00;53.22;100376.19;4896169;29;20060;-60
2022/08/20 08:51:11;;;;;;;5.75;0.50;;;;;;;25.05;52.83;100386.84;4893197;29;20048;-61
2022/08/20 08:53:57;;;;;;;4.15;1.83;;;;;;;24.99;53.49;100380.22;4878291;29;20524;-60
2022/08/20 08:56:42;;;;;;;2.33;0.63;;;;;;;25.01;53.52;100381.34;4901352;29;20059;-60
2022/08/20 08:59:29;;;;;;;1.13;0.50;;;;;;;24.95;53.67;100383.03;4909107;29;20051;-60
2022/08/20 09:02:24;;;;;;;5.47;1.65;;;;;;;25.05;52.94;100389.63;4877451;29;20056;-60
2022/08/20 09:05:16;;;;;;;3.20;0.80;;;;;;;25.05;53.21;100390.44;4877255;29;20044;-59
2022/08/20 09:08:10;;;;;;;5.75;0.93;;;;;;;25.09;53.12;100391.16;4880130;29;20072;-60
2022/08/20 09:11:03;;;;;;;2.83;0.97;;;;;;;25.12;52.59;100395.09;4878019;29;20052;-60
2022/08/20 09:13:48;;;;;;;6.15;0.50;;;;;;;25.23;52.80;100392.94;4877503;29;20292;-60
2022/08/20 09:16:33;;;;;;;1.45;0.50;;;;;;;25.16;52.84;100398.59;4877916;29;20409;-61
2022/08/20 09:19:18;;;;;;;1.90;0.43;;;;;;;25.23;52.65;100392.94;4878053;29;20056;-61
2022/08/20 09:22:10;;;;;;;5.82;0.60;;;;;;;25.16;53.00;100393.03;4877929;29;20072;-60
2022/08/20 09:24:55;;;;;;;5.38;0.77;;;;;;;25.08;52.90;100400.72;4877563;29;20059;-61
2022/08/20 09:27:40;;;;;;;4.38;0.70;;;;;;;25.11;53.88;100399.09;4877818;29;20528;-60
2022/08/20 09:30:24;;;;;;;2.85;0.60;;;;;;;25.29;53.17;100388.47;4877933;29;20061;-60
2022/08/20 09:33:10;;;;;;;2.67;0.70;;;;;;;25.31;52.96;100388.81;4879627;29;20052;-60
2022/08/20 09:35:55;;;;;;;1.95;0.52;;;;;;;25.17;53.51;100391.84;4878183;29;20075;-60
2022/08/20 09:38:40;;;;;;;0.88;0.52;;;;;;;25.09;53.90;100382.03;4877773;29;20358;-60
2022/08/20 09:41:25;;;;;;;3.58;1.00;;;;;;;25.19;53.75;100383.88;4877414;29;20409;-59
2022/08/20 09:44:10;;;;;;;5.22;0.73;;;;;;;24.95;54.31;100379.47;4877046;29;20048;-61
2022/08/20 09:46:55;;;;;;;1.17;0.60;;;;;;;24.88;54.67;100376.81;4877537;29;20052;-61
2022/08/20 09:49:40;;;;;;;2.83;0.60;;;;;;;24.92;54.16;100374.75;4877302;29;20064;-61
2022/08/20 09:52:29;;;;;;;2.65;0.40;;;;;;;24.99;53.97;100374.66;4878303;29;20052;-61
2022/08/20 09:55:21;;;;;;;2.75;0.50;;;;;;;25.10;53.73;100364.91;4877072;29;20052;-61
2022/08/20 09:58:23;;;;;;;1.48;0.40;;;;;;;25.63;52.59;100359.66;4879453;29;20413;-61
2022/08/20 10:01:13;;;;;;;1.48;0.40;;;;;;;25.45;53.48;100368.28;4879534;29;20522;-61
2022/08/20 10:03:58;;;;;;;0.68;0.68;;;;;;;25.30;53.82;100361.38;4880249;29;20048;-61
2022/08/20 10:06:44;;;;;;;0.70;0.32;;;;;;;25.13;54.15;100364.06;4877283;29;20060;-59
2022/08/20 10:09:29;;;;;;;3.03;0.30;;;;;;;25.04;54.47;100363.03;4877529;29;20056;-61
2022/08/20 10:12:14;;;;;;;3.53;0.43;;;;;;;25.05;54.38;100367.38;4877264;29;20059;-60
2022/08/20 10:14:59;;;;;;;0.80;0.30;;;;;;;25.16;53.36;100359.66;4876878;29;20397;-62
2022/08/20 10:17:44;;;;;;;2.25;0.30;;;;;;;24.94;54.40;100352.88;4881358;29;20055;-61
2022/08/20 10:20:29;;;;;;;0.82;0.25;;;;;;;24.95;54.08;100358.00;4891996;29;20051;-61
2022/08/20 10:23:14;;;;;;;0.73;0.52;;;;;;;25.08;53.25;100349.84;4888934;29;20424;-61
2022/08/20 10:25:59;;;;;;;5.63;0.55;;;;;;;25.26;52.87;100350.31;4891767;29;20052;-61
2022/08/20 10:28:44;;;;;;;0.93;0.25;;;;;;;25.48;52.05;100342.38;4884868;29;20056;-61
2022/08/20 10:31:29;;;;;;;0.30;0.20;;;;;;;25.53;51.50;100350.25;4895390;29;20047;-61
2022/08/20 10:34:14;;;;;;;0.47;0.30;;;;;;;25.31;52.51;100354.63;4956137;23;20055;-58
2022/08/20 10:36:59;;;;;;;0.90;0.38;;;;;;;25.17;52.90;100350.09;4952437;28;20403;-58
2022/08/20 10:39:45;;;;;;;1.67;0.47;;;;;;;25.09;52.66;100349.41;4950874;29;20054;-58
2022/08/20 10:42:30;;;;;;;0.43;0.40;;;;;;;24.94;53.64;100342.50;4922221;29;20071;-58
2022/08/20 10:45:15;;;;;;;3.75;0.45;;;;;;;25.13;52.23;100346.59;4928879;29;20050;-58
2022/08/20 10:48:01;;;;;;;0.30;0.25;;;;;;;25.06;52.40;100346.69;4933048;29;20058;-58
2022/08/20 10:50:46;;;;;;;0.55;0.50;;;;;;;25.17;52.27;100344.53;4933003;29;20055;-58
2022/08/20 10:53:31;;;;;;;1.98;0.30;;;;;;;25.46;51.02;100351.16;4937649;29;20047;-58
2022/08/20 10:56:16;;;;;;;2.00;0.40;;;;;;;25.51;51.04;100341.53;4933193;29;20059;-58
2022/08/20 10:59:01;;;;;;;0.40;0.30;;;;;;;25.34;51.63;100348.22;4933211;29;20055;-58
2022/08/20 11:01:46;;;;;;;2.58;1.15;;;;;;;25.43;51.41;100349.25;4914192;29;20047;-58
2022/08/20 11:04:31;;;;;;;1.58;0.35;;;;;;;25.30;52.18;100355.81;4928975;29;20047;-57
2022/08/20 11:07:19;;;;;;;0.90;0.40;;;;;;;25.39;51.91;100342.97;4936410;29;20075;-57
2022/08/20 11:10:07;;;;;;;1.25;0.50;;;;;;;25.62;50.47;100344.94;4941366;29;20518;-58
2022/08/20 11:12:52;;;;;;;0.50;0.40;;;;;;;25.71;50.15;100342.38;4929484;29;20100;-58
2022/08/20 11:15:40;;;;;;;2.03;0.40;;;;;;;25.62;50.91;100341.38;4935352;29;20051;-58
2022/08/20 11:18:25;;;;;;;3.15;0.35;;;;;;;26.15;48.48;100348.66;4941198;28;20071;-58
2022/08/20 11:21:10;;;;;;;2.38;0.30;;;;;;;26.31;47.86;100346.72;4938587;29;20102;-58
2022/08/20 11:23:55;;;;;;;1.40;0.47;;;;;;;26.49;47.97;100342.78;4937116;29;20055;-58
2022/08/20 11:26:40;;;;;;;0.77;0.30;;;;;;;26.50;47.48;100347.16;4942613;29;20046;-58
2022/08/20 11:29:25;;;;;;;2.15;0.55;;;;;;;26.37;47.60;100347.81;4960614;28;20054;-58
2022/08/20 11:32:10;;;;;;;0.68;0.32;;;;;;;26.29;48.03;100343.59;4944584;29;20043;-58
2022/08/20 11:34:55;;;;;;;3.85;0.25;;;;;;;26.21;47.93;100341.38;4933792;29;20550;-58
2022/08/20 11:37:40;;;;;;;0.77;0.45;;;;;;;26.25;47.22;100337.31;4947144;28;20395;-58
2022/08/20 11:40:27;;;;;;;0.47;0.30;;;;;;;25.98;48.18;100336.66;4939691;28;20050;-58
2022/08/20 11:43:12;;;;;;;1.92;0.50;;;;;;;25.98;47.98;100340.25;4922326;29;20052;-58
2022/08/20 11:45:57;;;;;;;0.47;0.38;;;;;;;25.97;47.81;100335.09;4929824;29;20171;-58
2022/08/20 11:48:42;;;;;;;3.08;0.38;;;;;;;25.59;50.17;100336.66;4929334;29;20423;-58
2022/08/20 11:51:27;;;;;;;0.32;0.20;;;;;;;25.41;50.48;100337.72;4933101;29;20124;-58
2022/08/20 11:54:11;;;;;;;0.38;0.30;;;;;;;25.57;49.73;100331.50;4949004;28;20059;-57
2022/08/20 11:56:56;;;;;;;0.70;0.20;;;;;;;25.53;50.24;100337.13;4948175;29;20054;-58
2022/08/20 11:59:47;;;;;;;0.30;0.30;;;;;;;25.42;49.63;100330.94;4942930;29;20519;-58
2022/08/20 12:02:31;;;;;;;0.70;0.30;;;;;;;25.27;51.00;100335.19;4936003;29;20415;-58
2022/08/20 12:05:17;;;;;;;0.20;0.20;;;;;;;25.37;50.45;100337.00;4938557;29;20042;-58
2022/08/20 12:08:03;;;;;;;0.38;0.30;;;;;;;25.35;50.61;100342.22;4917521;29;20059;-58
2022/08/20 12:10:48;;;;;;;1.85;0.35;;;;;;;25.28;50.56;100338.78;4943541;28;20046;-58
2022/08/20 12:13:35;;;;;;;1.05;0.30;;;;;;;25.23;50.90;100328.91;4942059;29;20066;-58
2022/08/20 12:16:20;;;;;;;0.82;0.50;;;;;;;25.37;50.07;100330.66;4936788;29;20070;-58
2022/08/20 12:19:05;;;;;;;0.50;0.30;;;;;;;25.41;50.25;100332.16;4935796;29;20043;-58
2022/08/20 12:21:50;;;;;;;0.50;0.40;;;;;;;25.66;49.10;100340.06;4935654;29;20050;-58
2022/08/20 12:24:35;;;;;;;0.70;0.32;;;;;;;25.62;49.69;100335.78;4947057;29;20046;-58
2022/08/20 12:27:27;;;;;;;0.30;0.20;;;;;;;25.82;48.77;100333.81;4935973;29;20055;-58
2022/08/20 12:30:18;;;;;;;1.33;0.40;;;;;;;26.18;47.40;100331.06;4915891;29;20047;-58
2022/08/20 12:33:03;;;;;;;0.98;0.32;;;;;;;26.18;47.47;100340.22;4916346;29;20047;-58
2022/08/20 12:35:48;;;;;;;0.82;0.35;;;;;;;26.24;47.04;100337.75;4915613;29;20051;-59
2022/08/20 12:38:33;;;;;;;4.85;0.40;;;;;;;26.04;47.98;100336.94;4949222;29;20136;-58
2022/08/20 12:41:18;;;;;;;3.45;0.40;;;;;;;26.03;47.80;100335.38;4955086;28;20054;-58
2022/08/20 12:44:05;;;;;;;6.63;0.30;;;;;;;26.17;46.97;100333.06;4950668;29;20047;-58
2022/08/20 12:46:50;;;;;;;3.13;0.60;;;;;;;26.26;47.71;100319.34;4954204;29;20046;-58
2022/08/20 12:49:36;;;;;;;0.52;0.40;;;;;;;26.48;46.20;100318.88;4954294;28;20050;-58
2022/08/20 12:52:22;;;;;;;0.82;0.30;;;;;;;26.51;46.61;100327.19;4959021;28;20399;-58
2022/08/20 12:55:09;;;;;;;1.23;0.30;;;;;;;26.52;46.77;100325.16;4953761;29;20054;-58
2022/08/20 12:57:58;;;;;;;1.13;0.32;;;;;;;26.28;47.04;100314.16;4953897;29;20415;-59
2022/08/20 13:00:44;;;;;;;0.63;0.40;;;;;;;26.13;47.43;100324.00;4954144;28;20046;-58